Haines, AK (99827)

10:34 AM AKST on December 20, 2014 (GMT -0900)
Haines | Change Station
CLOSE
Current Station
Airport
Location: Haines,
Elevation: 16 ft
Nearby Weather Stations

Elev 16 ft 59.24 °N, 135.51 °W | Updated 40 minutes ago

Light Snow
Light Snow Mist
30 °F
Feels Like 20 °F
N
14
Wind Variable Wind from WNW

Today
High -- | Low -- °F
--% Chance of Precip.
Yesterday
High -- | Low -- °F
Precip. -- in
8:56 AM 3:02 PM
Waning Crescent, 2% visible
Pressure 29.08 in
Visibility 6.0 miles
Clouds Few 3600 ft
Scattered Clouds 4600 ft
Overcast 7500 ft
Windchill 20 °F
Dew Point 27 °F
Humidity 88%
Rainfall 0.00 in
Snow Depth Not available.
UV 0 out of 12
Pollen Not available.
Air Quality Not available.
Flu Activity Not available.
METAR PAHN 201854Z AUTO 30012KT 6SM -SN BR FEW036 SCT046 OVC075 M01/M03 A2907 RMK AO2 SNE03B21 SLP848 P0000 T10111028 TSNO

More Conditions Fewer Conditions

Pressure 29.08 in
Visibility 6.0 miles
Clouds Few 3600 ft
Scattered Clouds 4600 ft
Overcast 7500 ft
Windchill 20 °F
Dew Point 27 °F
Humidity 88%
Rainfall 0.00 in
Snow Depth Not available.
UV 0 out of 12
Pollen Not available.
Air Quality Not available.
Flu Activity Not available.
METAR PAHN 201854Z AUTO 30012KT 6SM -SN BR FEW036 SCT046 OVC075 M01/M03 A2907 RMK AO2 SNE03B21 SLP848 P0000 T10111028 TSNO

More Conditions Fewer Conditions

10-Day Weather Forecast

Almanac

Astronomy

Dec. 20, 2014 Rise Set
Actual Time
Civil Twilight
Nautical Twilight
Astronomical Twilight
Moon
Length of Visible Light
Length of Day
Tomorrow will be .
, % of the Moon is Illuminated

Today's Extremes

State Highs State Lows

Community

WunderPhotos

Upload Photos

1,779,257 photos uploaded!

WunderBlogs® & News

Nearby

Air Quality

  Air Quality AQ Index Pollutant
Not available.

Snow Depth

Station Depth Elevation

Earthquake Activity

City Distance Mag. Time & Date
Minimum magnitude displayed is 2.5.

Coastal Water Temperatures

Place Temperature

Nearby Weather Stations